Lincoln, Washington
Current Conditions -  °F | °C
As of 11:26 AM on Sunday 21 Dec 2014 (Local Time) from KSKA Reporting Station
Unknown Precip Unknown Precip  
Wind Chill: 34°   Ceiling: Unl
Heat Index: 43°   Visibility: 10mi
Dew Point: 37°   Wind: 20mph
Humidity: 81%   Direction: 250°WSW
Pressure: 29.78"   Gusts: 25mph
Location:  47.83°N, 118.42°W
Report Text: KSKA 211926Z AUTO 25017G22KT 10SM UP FEW240 06/03 A2978 RMK AO2 UPB25
Loading
Personal Weather Stations






























Interactive Weather Map New forecast layout! Learn more

10-Day Weather Forecast

Advertisements
Track Severe Weather on mobile